sensor_id;sensor_type;location;lat;lon;timestamp;P1;durP1;ratioP1;P2;durP2;ratioP2
12768;SDS011;6448;48.916;8.990;2022-11-20T00:00:16;4.78;;;4.38;;
12768;SDS011;6448;48.916;8.990;2022-11-20T00:01:18;5.13;;;4.72;;
12768;SDS011;6448;48.916;8.990;2022-11-20T00:02:21;5.00;;;4.60;;
12768;SDS011;6448;48.916;8.990;2022-11-20T00:03:22;4.80;;;4.40;;
12768;SDS011;6448;48.916;8.990;2022-11-20T00:04:24;4.63;;;4.25;;
12768;SDS011;6448;48.916;8.990;2022-11-20T00:05:26;5.13;;;4.72;;
12768;SDS011;6448;48.916;8.990;2022-11-20T00:06:27;4.82;;;4.43;;
12768;SDS011;6448;48.916;8.990;2022-11-20T00:07:31;5.07;;;4.57;;
12768;SDS011;6448;48.916;8.990;2022-11-20T00:08:32;5.13;;;4.70;;
12768;SDS011;6448;48.916;8.990;2022-11-20T00:09:34;5.18;;;4.78;;
12768;SDS011;6448;48.916;8.990;2022-11-20T00:10:35;5.40;;;4.90;;
12768;SDS011;6448;48.916;8.990;2022-11-20T00:11:37;5.50;;;5.00;;
12768;SDS011;6448;48.916;8.990;2022-11-20T00:12:38;5.57;;;5.07;;
12768;SDS011;6448;48.916;8.990;2022-11-20T00:13:40;5.68;;;5.28;;
12768;SDS011;6448;48.916;8.990;2022-11-20T00:14:41;6.07;;;5.57;;
12768;SDS011;6448;48.916;8.990;2022-11-20T00:15:43;5.85;;;5.30;;
12768;SDS011;6448;48.916;8.990;2022-11-20T00:16:44;5.63;;;5.13;;
12768;SDS011;6448;48.916;8.990;2022-11-20T00:17:45;5.60;;;5.10;;
12768;SDS011;6448;48.916;8.990;2022-11-20T00:18:47;5.78;;;5.28;;
12768;SDS011;6448;48.916;8.990;2022-11-20T00:19:49;6.00;;;5.40;;
12768;SDS011;6448;48.916;8.990;2022-11-20T00:20:50;5.45;;;5.05;;
12768;SDS011;6448;48.916;8.990;2022-11-20T00:21:51;5.88;;;5.38;;
12768;SDS011;6448;48.916;8.990;2022-11-20T00:22:56;6.00;;;5.50;;
12768;SDS011;6448;48.916;8.990;2022-11-20T00:23:57;6.10;;;5.60;;
12768;SDS011;6448;48.916;8.990;2022-11-20T00:24:59;6.03;;;5.53;;
12768;SDS011;6448;48.916;8.990;2022-11-20T00:26:01;6.40;;;5.90;;
12768;SDS011;6448;48.916;8.990;2022-11-20T00:27:04;6.30;;;5.80;;
12768;SDS011;6448;48.916;8.990;2022-11-20T00:28:05;6.63;;;6.05;;
12768;SDS011;6448;48.916;8.990;2022-11-20T00:29:08;6.88;;;6.28;;
12768;SDS011;6448;48.916;8.990;2022-11-20T00:30:10;6.50;;;6.00;;
12768;SDS011;6448;48.916;8.990;2022-11-20T00:31:12;6.50;;;6.00;;
12768;SDS011;6448;48.916;8.990;2022-11-20T00:32:15;6.70;;;6.20;;
12768;SDS011;6448;48.916;8.990;2022-11-20T00:33:16;6.88;;;6.18;;
12768;SDS011;6448;48.916;8.990;2022-11-20T00:34:17;6.03;;;5.63;;
12768;SDS011;6448;48.916;8.990;2022-11-20T00:35:19;6.17;;;5.67;;
12768;SDS011;6448;48.916;8.990;2022-11-20T00:36:20;6.20;;;5.70;;
12768;SDS011;6448;48.916;8.990;2022-11-20T00:37:23;6.20;;;5.70;;
12768;SDS011;6448;48.916;8.990;2022-11-20T00:38:25;6.30;;;5.80;;
12768;SDS011;6448;48.916;8.990;2022-11-20T00:39:27;6.10;;;5.60;;
12768;SDS011;6448;48.916;8.990;2022-11-20T00:40:28;5.97;;;5.57;;
12768;SDS011;6448;48.916;8.990;2022-11-20T00:41:30;6.15;;;5.65;;
12768;SDS011;6448;48.916;8.990;2022-11-20T00:42:32;5.97;;;5.47;;
12768;SDS011;6448;48.916;8.990;2022-11-20T00:43:33;5.93;;;5.53;;
12768;SDS011;6448;48.916;8.990;2022-11-20T00:44:36;5.80;;;5.40;;
12768;SDS011;6448;48.916;8.990;2022-11-20T00:45:36;5.95;;;5.53;;
12768;SDS011;6448;48.916;8.990;2022-11-20T00:46:38;6.07;;;5.57;;
12768;SDS011;6448;48.916;8.990;2022-11-20T00:47:39;5.82;;;5.43;;
12768;SDS011;6448;48.916;8.990;2022-11-20T00:48:41;5.57;;;5.18;;
12768;SDS011;6448;48.916;8.990;2022-11-20T00:49:42;5.75;;;5.35;;
12768;SDS011;6448;48.916;8.990;2022-11-20T00:50:44;5.60;;;5.20;;
12768;SDS011;6448;48.916;8.990;2022-11-20T00:51:45;6.10;;;5.60;;
12768;SDS011;6448;48.916;8.990;2022-11-20T00:52:46;5.70;;;5.30;;
12768;SDS011;6448;48.916;8.990;2022-11-20T00:53:48;5.80;;;5.40;;
12768;SDS011;6448;48.916;8.990;2022-11-20T00:54:50;5.30;;;4.90;;
12768;SDS011;6448;48.916;8.990;2022-11-20T00:55:54;5.28;;;4.88;;
12768;SDS011;6448;48.916;8.990;2022-11-20T00:56:57;5.32;;;4.93;;
12768;SDS011;6448;48.916;8.990;2022-11-20T00:57:58;5.38;;;4.97;;
12768;SDS011;6448;48.916;8.990;2022-11-20T00:58:59;5.47;;;5.07;;
12768;SDS011;6448;48.916;8.990;2022-11-20T01:00:01;5.20;;;4.80;;
12768;SDS011;6448;48.916;8.990;2022-11-20T01:01:03;5.20;;;4.80;;
12768;SDS011;6448;48.916;8.990;2022-11-20T01:02:06;5.20;;;4.85;;
12768;SDS011;6448;48.916;8.990;2022-11-20T01:03:07;5.32;;;4.93;;
12768;SDS011;6448;48.916;8.990;2022-11-20T01:04:08;5.30;;;4.90;;
12768;SDS011;6448;48.916;8.990;2022-11-20T01:05:10;5.50;;;5.10;;
12768;SDS011;6448;48.916;8.990;2022-11-20T01:06:11;5.53;;;5.13;;
12768;SDS011;6448;48.916;8.990;2022-11-20T01:07:15;5.40;;;5.00;;
12768;SDS011;6448;48.916;8.990;2022-11-20T01:08:15;5.10;;;4.70;;
12768;SDS011;6448;48.916;8.990;2022-11-20T01:09:18;5.10;;;4.70;;
12768;SDS011;6448;48.916;8.990;2022-11-20T01:10:20;5.13;;;4.72;;
12768;SDS011;6448;48.916;8.990;2022-11-20T01:11:22;5.32;;;4.93;;
12768;SDS011;6448;48.916;8.990;2022-11-20T01:12:25;5.10;;;4.70;;
12768;SDS011;6448;48.916;8.990;2022-11-20T01:13:26;5.30;;;4.90;;
12768;SDS011;6448;48.916;8.990;2022-11-20T01:14:40;4.97;;;4.68;;
12768;SDS011;6448;48.916;8.990;2022-11-20T01:15:42;4.83;;;4.43;;
12768;SDS011;6448;48.916;8.990;2022-11-20T01:16:44;5.38;;;4.97;;
12768;SDS011;6448;48.916;8.990;2022-11-20T01:17:48;4.57;;;4.28;;
12768;SDS011;6448;48.916;8.990;2022-11-20T01:18:49;4.63;;;4.32;;
12768;SDS011;6448;48.916;8.990;2022-11-20T01:19:52;4.78;;;4.47;;
12768;SDS011;6448;48.916;8.990;2022-11-20T01:20:53;4.67;;;4.37;;
12768;SDS011;6448;48.916;8.990;2022-11-20T01:21:55;4.80;;;4.50;;
12768;SDS011;6448;48.916;8.990;2022-11-20T01:22:57;4.65;;;4.35;;
12768;SDS011;6448;48.916;8.990;2022-11-20T01:23:58;4.75;;;4.45;;
12768;SDS011;6448;48.916;8.990;2022-11-20T01:25:01;4.60;;;4.30;;
12768;SDS011;6448;48.916;8.990;2022-11-20T01:26:04;4.40;;;4.10;;
12768;SDS011;6448;48.916;8.990;2022-11-20T01:27:07;4.50;;;4.20;;
12768;SDS011;6448;48.916;8.990;2022-11-20T01:28:09;4.38;;;4.07;;
12768;SDS011;6448;48.916;8.990;2022-11-20T01:29:11;4.47;;;4.18;;
12768;SDS011;6448;48.916;8.990;2022-11-20T01:30:15;4.22;;;3.92;;
12768;SDS011;6448;48.916;8.990;2022-11-20T01:31:16;4.47;;;4.18;;
12768;SDS011;6448;48.916;8.990;2022-11-20T01:32:19;4.30;;;4.00;;
12768;SDS011;6448;48.916;8.990;2022-11-20T01:33:20;4.80;;;4.50;;
12768;SDS011;6448;48.916;8.990;2022-11-20T01:34:22;5.32;;;4.93;;
12768;SDS011;6448;48.916;8.990;2022-11-20T01:35:23;5.13;;;4.72;;
12768;SDS011;6448;48.916;8.990;2022-11-20T01:36:25;5.07;;;4.68;;
12768;SDS011;6448;48.916;8.990;2022-11-20T01:37:27;5.25;;;4.85;;
12768;SDS011;6448;48.916;8.990;2022-11-20T01:38:29;4.70;;;4.40;;
12768;SDS011;6448;48.916;8.990;2022-11-20T01:39:29;4.88;;;4.57;;
12768;SDS011;6448;48.916;8.990;2022-11-20T01:40:33;4.95;;;4.65;;
12768;SDS011;6448;48.916;8.990;2022-11-20T01:41:34;5.20;;;4.80;;
12768;SDS011;6448;48.916;8.990;2022-11-20T01:42:55;5.20;;;4.80;;
12768;SDS011;6448;48.916;8.990;2022-11-20T01:44:41;4.95;;;4.65;;
12768;SDS011;6448;48.916;8.990;2022-11-20T01:45:58;4.70;;;4.40;;
12768;SDS011;6448;48.916;8.990;2022-11-20T01:47:14;4.73;;;4.43;;
12768;SDS011;6448;48.916;8.990;2022-11-20T01:48:17;4.75;;;4.45;;
12768;SDS011;6448;48.916;8.990;2022-11-20T01:49:21;5.10;;;4.80;;
12768;SDS011;6448;48.916;8.990;2022-11-20T01:50:27;4.97;;;4.65;;
12768;SDS011;6448;48.916;8.990;2022-11-20T01:51:31;4.80;;;4.50;;
12768;SDS011;6448;48.916;8.990;2022-11-20T01:52:36;5.07;;;4.68;;
12768;SDS011;6448;48.916;8.990;2022-11-20T01:53:40;5.30;;;4.90;;
12768;SDS011;6448;48.916;8.990;2022-11-20T01:54:42;4.78;;;4.47;;
12768;SDS011;6448;48.916;8.990;2022-11-20T01:55:51;5.30;;;4.93;;
12768;SDS011;6448;48.916;8.990;2022-11-20T01:56:54;5.13;;;4.72;;
12768;SDS011;6448;48.916;8.990;2022-11-20T01:57:58;4.90;;;4.60;;
12768;SDS011;6448;48.916;8.990;2022-11-20T01:59:01;4.82;;;4.53;;
12768;SDS011;6448;48.916;8.990;2022-11-20T02:00:06;4.90;;;4.60;;
12768;SDS011;6448;48.916;8.990;2022-11-20T02:01:15;5.10;;;4.80;;
12768;SDS011;6448;48.916;8.990;2022-11-20T02:02:17;4.85;;;4.55;;
12768;SDS011;6448;48.916;8.990;2022-11-20T02:03:18;4.82;;;4.43;;
12768;SDS011;6448;48.916;8.990;2022-11-20T02:04:21;4.95;;;4.57;;
12768;SDS011;6448;48.916;8.990;2022-11-20T02:05:25;4.80;;;4.50;;
12768;SDS011;6448;48.916;8.990;2022-11-20T02:06:32;5.13;;;4.72;;
12768;SDS011;6448;48.916;8.990;2022-11-20T02:07:39;5.25;;;4.85;;
12768;SDS011;6448;48.916;8.990;2022-11-20T02:08:41;5.07;;;4.70;;
12768;SDS011;6448;48.916;8.990;2022-11-20T02:09:42;4.85;;;4.55;;
12768;SDS011;6448;48.916;8.990;2022-11-20T02:10:43;4.95;;;4.57;;
12768;SDS011;6448;48.916;8.990;2022-11-20T02:11:46;4.90;;;4.60;;
12768;SDS011;6448;48.916;8.990;2022-11-20T02:12:47;4.63;;;4.32;;
12768;SDS011;6448;48.916;8.990;2022-11-20T02:14:07;4.88;;;4.47;;
12768;SDS011;6448;48.916;8.990;2022-11-20T02:15:09;4.72;;;4.43;;
12768;SDS011;6448;48.916;8.990;2022-11-20T02:16:12;4.45;;;4.15;;
12768;SDS011;6448;48.916;8.990;2022-11-20T02:17:16;4.70;;;4.40;;
12768;SDS011;6448;48.916;8.990;2022-11-20T02:18:17;5.03;;;4.72;;
12768;SDS011;6448;48.916;8.990;2022-11-20T02:19:22;4.90;;;4.60;;
12768;SDS011;6448;48.916;8.990;2022-11-20T02:20:27;4.90;;;4.60;;
12768;SDS011;6448;48.916;8.990;2022-11-20T02:21:30;4.63;;;4.32;;
12768;SDS011;6448;48.916;8.990;2022-11-20T02:22:37;4.82;;;4.53;;
12768;SDS011;6448;48.916;8.990;2022-11-20T02:24:02;4.85;;;4.45;;
12768;SDS011;6448;48.916;8.990;2022-11-20T02:25:06;4.80;;;4.50;;
12768;SDS011;6448;48.916;8.990;2022-11-20T02:26:10;5.20;;;4.80;;
12768;SDS011;6448;48.916;8.990;2022-11-20T02:27:14;4.93;;;4.57;;
12768;SDS011;6448;48.916;8.990;2022-11-20T02:28:17;5.78;;;5.38;;
12768;SDS011;6448;48.916;8.990;2022-11-20T02:29:22;5.90;;;5.50;;
12768;SDS011;6448;48.916;8.990;2022-11-20T02:30:26;5.63;;;5.22;;
12768;SDS011;6448;48.916;8.990;2022-11-20T02:31:27;5.78;;;5.35;;
12768;SDS011;6448;48.916;8.990;2022-11-20T02:32:29;5.35;;;4.95;;
12768;SDS011;6448;48.916;8.990;2022-11-20T02:33:33;5.50;;;5.10;;
12768;SDS011;6448;48.916;8.990;2022-11-20T02:34:34;4.93;;;4.57;;
12768;SDS011;6448;48.916;8.990;2022-11-20T02:35:38;5.22;;;4.82;;
12768;SDS011;6448;48.916;8.990;2022-11-20T02:36:41;5.15;;;4.75;;
12768;SDS011;6448;48.916;8.990;2022-11-20T02:37:45;5.28;;;4.88;;
12768;SDS011;6448;48.916;8.990;2022-11-20T02:38:48;5.28;;;4.88;;
12768;SDS011;6448;48.916;8.990;2022-11-20T02:39:52;5.22;;;4.82;;
12768;SDS011;6448;48.916;8.990;2022-11-20T02:40:53;5.18;;;4.78;;
12768;SDS011;6448;48.916;8.990;2022-11-20T02:41:54;5.10;;;4.70;;
12768;SDS011;6448;48.916;8.990;2022-11-20T02:42:56;5.18;;;4.78;;
12768;SDS011;6448;48.916;8.990;2022-11-20T02:43:58;5.05;;;4.65;;
12768;SDS011;6448;48.916;8.990;2022-11-20T02:44:59;5.32;;;4.93;;
12768;SDS011;6448;48.916;8.990;2022-11-20T02:46:01;5.88;;;5.40;;
12768;SDS011;6448;48.916;8.990;2022-11-20T02:47:02;5.40;;;5.00;;
12768;SDS011;6448;48.916;8.990;2022-11-20T02:48:05;5.38;;;4.97;;
12768;SDS011;6448;48.916;8.990;2022-11-20T02:49:06;5.53;;;5.13;;
12768;SDS011;6448;48.916;8.990;2022-11-20T02:50:08;5.38;;;4.97;;
12768;SDS011;6448;48.916;8.990;2022-11-20T02:51:09;5.47;;;5.07;;
12768;SDS011;6448;48.916;8.990;2022-11-20T02:52:10;5.85;;;5.38;;
12768;SDS011;6448;48.916;8.990;2022-11-20T02:53:11;5.57;;;5.18;;
12768;SDS011;6448;48.916;8.990;2022-11-20T02:54:13;5.72;;;5.32;;
12768;SDS011;6448;48.916;8.990;2022-11-20T02:55:15;5.80;;;5.35;;
12768;SDS011;6448;48.916;8.990;2022-11-20T02:56:17;5.68;;;5.28;;
12768;SDS011;6448;48.916;8.990;2022-11-20T02:57:18;5.40;;;5.00;;
12768;SDS011;6448;48.916;8.990;2022-11-20T02:58:20;5.35;;;4.95;;
12768;SDS011;6448;48.916;8.990;2022-11-20T02:59:21;5.30;;;4.90;;
12768;SDS011;6448;48.916;8.990;2022-11-20T03:00:23;5.30;;;4.90;;
12768;SDS011;6448;48.916;8.990;2022-11-20T03:01:23;5.40;;;5.00;;
12768;SDS011;6448;48.916;8.990;2022-11-20T03:02:25;5.25;;;4.85;;
12768;SDS011;6448;48.916;8.990;2022-11-20T03:03:29;5.53;;;5.13;;
12768;SDS011;6448;48.916;8.990;2022-11-20T03:04:31;5.50;;;5.10;;
12768;SDS011;6448;48.916;8.990;2022-11-20T03:05:31;5.10;;;4.70;;
12768;SDS011;6448;48.916;8.990;2022-11-20T03:06:33;5.15;;;4.75;;
12768;SDS011;6448;48.916;8.990;2022-11-20T03:07:34;4.53;;;4.18;;
12768;SDS011;6448;48.916;8.990;2022-11-20T03:08:36;4.88;;;4.47;;
12768;SDS011;6448;48.916;8.990;2022-11-20T03:09:37;4.40;;;4.10;;
12768;SDS011;6448;48.916;8.990;2022-11-20T03:10:40;4.43;;;4.10;;
12768;SDS011;6448;48.916;8.990;2022-11-20T03:11:41;4.50;;;4.18;;
12768;SDS011;6448;48.916;8.990;2022-11-20T03:12:42;3.97;;;3.67;;
12768;SDS011;6448;48.916;8.990;2022-11-20T03:13:43;3.92;;;3.63;;
12768;SDS011;6448;48.916;8.990;2022-11-20T03:14:45;3.38;;;3.08;;
12768;SDS011;6448;48.916;8.990;2022-11-20T03:15:46;3.25;;;3.05;;
12768;SDS011;6448;48.916;8.990;2022-11-20T03:16:47;3.05;;;2.85;;
12768;SDS011;6448;48.916;8.990;2022-11-20T03:17:48;3.10;;;2.90;;
12768;SDS011;6448;48.916;8.990;2022-11-20T03:18:52;3.08;;;2.88;;
12768;SDS011;6448;48.916;8.990;2022-11-20T03:19:53;2.83;;;2.63;;
12768;SDS011;6448;48.916;8.990;2022-11-20T03:20:56;2.65;;;2.45;;
12768;SDS011;6448;48.916;8.990;2022-11-20T03:21:58;2.60;;;2.40;;
12768;SDS011;6448;48.916;8.990;2022-11-20T03:23:00;2.67;;;2.47;;
12768;SDS011;6448;48.916;8.990;2022-11-20T03:24:01;2.85;;;2.65;;
12768;SDS011;6448;48.916;8.990;2022-11-20T03:25:04;2.30;;;2.15;;
12768;SDS011;6448;48.916;8.990;2022-11-20T03:26:11;2.20;;;2.00;;
12768;SDS011;6448;48.916;8.990;2022-11-20T03:27:14;2.40;;;2.20;;
12768;SDS011;6448;48.916;8.990;2022-11-20T03:28:15;2.40;;;2.20;;
12768;SDS011;6448;48.916;8.990;2022-11-20T03:29:16;2.38;;;2.20;;
12768;SDS011;6448;48.916;8.990;2022-11-20T03:30:17;2.50;;;2.30;;
12768;SDS011;6448;48.916;8.990;2022-11-20T03:31:20;2.75;;;2.55;;
12768;SDS011;6448;48.916;8.990;2022-11-20T03:32:22;2.90;;;2.70;;
12768;SDS011;6448;48.916;8.990;2022-11-20T03:33:24;3.17;;;2.97;;
12768;SDS011;6448;48.916;8.990;2022-11-20T03:34:28;3.72;;;3.42;;
12768;SDS011;6448;48.916;8.990;2022-11-20T03:35:30;3.75;;;3.53;;
12768;SDS011;6448;48.916;8.990;2022-11-20T03:36:30;3.60;;;3.30;;
12768;SDS011;6448;48.916;8.990;2022-11-20T03:37:32;3.70;;;3.40;;
12768;SDS011;6448;48.916;8.990;2022-11-20T03:38:33;3.67;;;3.47;;
12768;SDS011;6448;48.916;8.990;2022-11-20T03:39:36;3.65;;;3.35;;
12768;SDS011;6448;48.916;8.990;2022-11-20T03:40:36;3.00;;;2.80;;
12768;SDS011;6448;48.916;8.990;2022-11-20T03:41:40;2.90;;;2.70;;
12768;SDS011;6448;48.916;8.990;2022-11-20T03:42:43;2.80;;;2.60;;
12768;SDS011;6448;48.916;8.990;2022-11-20T03:43:47;2.85;;;2.65;;
12768;SDS011;6448;48.916;8.990;2022-11-20T03:44:50;2.70;;;2.50;;
12768;SDS011;6448;48.916;8.990;2022-11-20T03:45:50;2.58;;;2.38;;
12768;SDS011;6448;48.916;8.990;2022-11-20T03:46:52;2.05;;;1.95;;
12768;SDS011;6448;48.916;8.990;2022-11-20T03:47:53;1.90;;;1.80;;
12768;SDS011;6448;48.916;8.990;2022-11-20T03:48:55;1.92;;;1.83;;
12768;SDS011;6448;48.916;8.990;2022-11-20T03:49:56;1.63;;;1.52;;
12768;SDS011;6448;48.916;8.990;2022-11-20T03:51:08;1.95;;;1.85;;
12768;SDS011;6448;48.916;8.990;2022-11-20T03:52:09;1.60;;;1.50;;
12768;SDS011;6448;48.916;8.990;2022-11-20T03:53:11;2.00;;;1.50;;
12768;SDS011;6448;48.916;8.990;2022-11-20T03:54:12;1.60;;;1.50;;
12768;SDS011;6448;48.916;8.990;2022-11-20T03:55:14;1.50;;;1.40;;
12768;SDS011;6448;48.916;8.990;2022-11-20T03:56:16;1.40;;;1.30;;
12768;SDS011;6448;48.916;8.990;2022-11-20T03:57:21;1.50;;;1.30;;
12768;SDS011;6448;48.916;8.990;2022-11-20T03:58:22;1.50;;;1.40;;
12768;SDS011;6448;48.916;8.990;2022-11-20T03:59:23;1.40;;;1.30;;
12768;SDS011;6448;48.916;8.990;2022-11-20T04:00:24;1.50;;;1.40;;
12768;SDS011;6448;48.916;8.990;2022-11-20T04:01:27;1.30;;;1.20;;
12768;SDS011;6448;48.916;8.990;2022-11-20T04:02:29;1.50;;;1.40;;
12768;SDS011;6448;48.916;8.990;2022-11-20T04:03:31;1.48;;;1.38;;
12768;SDS011;6448;48.916;8.990;2022-11-20T04:04:31;1.40;;;1.30;;
12768;SDS011;6448;48.916;8.990;2022-11-20T04:05:33;1.40;;;1.30;;
12768;SDS011;6448;48.916;8.990;2022-11-20T04:06:35;1.40;;;1.30;;
12768;SDS011;6448;48.916;8.990;2022-11-20T04:07:38;1.40;;;1.30;;
12768;SDS011;6448;48.916;8.990;2022-11-20T04:08:39;1.50;;;1.40;;
12768;SDS011;6448;48.916;8.990;2022-11-20T04:09:41;1.40;;;1.30;;
12768;SDS011;6448;48.916;8.990;2022-11-20T04:10:42;1.47;;;1.37;;
12768;SDS011;6448;48.916;8.990;2022-11-20T04:11:44;1.48;;;1.33;;
12768;SDS011;6448;48.916;8.990;2022-11-20T04:12:46;1.40;;;1.30;;
12768;SDS011;6448;48.916;8.990;2022-11-20T04:13:48;1.40;;;1.30;;
12768;SDS011;6448;48.916;8.990;2022-11-20T04:14:50;1.30;;;1.20;;
12768;SDS011;6448;48.916;8.990;2022-11-20T04:15:55;1.50;;;1.40;;
12768;SDS011;6448;48.916;8.990;2022-11-20T04:16:57;1.40;;;1.30;;
12768;SDS011;6448;48.916;8.990;2022-11-20T04:17:59;1.40;;;1.30;;
12768;SDS011;6448;48.916;8.990;2022-11-20T04:19:00;1.40;;;1.30;;
12768;SDS011;6448;48.916;8.990;2022-11-20T04:20:04;1.60;;;1.50;;
12768;SDS011;6448;48.916;8.990;2022-11-20T04:21:06;1.50;;;1.30;;
12768;SDS011;6448;48.916;8.990;2022-11-20T04:22:08;1.40;;;1.30;;
12768;SDS011;6448;48.916;8.990;2022-11-20T04:23:08;1.35;;;1.25;;
12768;SDS011;6448;48.916;8.990;2022-11-20T04:24:10;1.50;;;1.40;;
12768;SDS011;6448;48.916;8.990;2022-11-20T04:25:11;1.48;;;1.38;;
12768;SDS011;6448;48.916;8.990;2022-11-20T04:26:13;1.50;;;1.40;;
12768;SDS011;6448;48.916;8.990;2022-11-20T04:27:14;1.45;;;1.35;;
12768;SDS011;6448;48.916;8.990;2022-11-20T04:28:17;1.40;;;1.30;;
12768;SDS011;6448;48.916;8.990;2022-11-20T04:29:18;1.58;;;1.48;;
12768;SDS011;6448;48.916;8.990;2022-11-20T04:30:19;1.60;;;1.50;;
12768;SDS011;6448;48.916;8.990;2022-11-20T04:31:21;1.60;;;1.50;;
12768;SDS011;6448;48.916;8.990;2022-11-20T04:32:23;1.70;;;1.60;;
12768;SDS011;6448;48.916;8.990;2022-11-20T04:33:24;1.57;;;1.47;;
12768;SDS011;6448;48.916;8.990;2022-11-20T04:34:26;1.70;;;1.60;;
12768;SDS011;6448;48.916;8.990;2022-11-20T04:35:27;1.50;;;1.40;;
12768;SDS011;6448;48.916;8.990;2022-11-20T04:36:29;2.00;;;1.40;;
12768;SDS011;6448;48.916;8.990;2022-11-20T04:37:30;1.50;;;1.40;;
12768;SDS011;6448;48.916;8.990;2022-11-20T04:38:32;1.50;;;1.40;;
12768;SDS011;6448;48.916;8.990;2022-11-20T04:39:33;1.52;;;1.40;;
12768;SDS011;6448;48.916;8.990;2022-11-20T04:40:35;1.50;;;1.40;;
12768;SDS011;6448;48.916;8.990;2022-11-20T04:41:36;1.90;;;1.50;;
12768;SDS011;6448;48.916;8.990;2022-11-20T04:42:37;1.55;;;1.45;;
12768;SDS011;6448;48.916;8.990;2022-11-20T04:43:40;1.55;;;1.45;;
12768;SDS011;6448;48.916;8.990;2022-11-20T04:44:41;2.40;;;1.60;;
12768;SDS011;6448;48.916;8.990;2022-11-20T04:45:42;1.60;;;1.50;;
12768;SDS011;6448;48.916;8.990;2022-11-20T04:46:44;1.50;;;1.40;;
12768;SDS011;6448;48.916;8.990;2022-11-20T04:47:45;1.50;;;1.40;;
12768;SDS011;6448;48.916;8.990;2022-11-20T04:48:47;1.50;;;1.40;;
12768;SDS011;6448;48.916;8.990;2022-11-20T04:49:48;1.67;;;1.58;;
12768;SDS011;6448;48.916;8.990;2022-11-20T04:50:50;1.60;;;1.50;;
12768;SDS011;6448;48.916;8.990;2022-11-20T04:51:52;1.65;;;1.55;;
12768;SDS011;6448;48.916;8.990;2022-11-20T04:52:54;1.45;;;1.35;;
12768;SDS011;6448;48.916;8.990;2022-11-20T04:53:55;1.50;;;1.40;;
12768;SDS011;6448;48.916;8.990;2022-11-20T04:54:57;1.60;;;1.50;;
12768;SDS011;6448;48.916;8.990;2022-11-20T04:56:00;1.60;;;1.50;;
12768;SDS011;6448;48.916;8.990;2022-11-20T04:57:03;1.70;;;1.60;;
12768;SDS011;6448;48.916;8.990;2022-11-20T04:58:03;1.63;;;1.52;;
12768;SDS011;6448;48.916;8.990;2022-11-20T04:59:07;1.65;;;1.42;;
12768;SDS011;6448;48.916;8.990;2022-11-20T05:00:08;1.83;;;1.45;;
12768;SDS011;6448;48.916;8.990;2022-11-20T05:01:11;1.60;;;1.50;;
12768;SDS011;6448;48.916;8.990;2022-11-20T05:02:13;1.55;;;1.40;;
12768;SDS011;6448;48.916;8.990;2022-11-20T05:03:15;1.83;;;1.40;;
12768;SDS011;6448;48.916;8.990;2022-11-20T05:04:15;1.60;;;1.50;;
12768;SDS011;6448;48.916;8.990;2022-11-20T05:05:17;1.52;;;1.42;;
12768;SDS011;6448;48.916;8.990;2022-11-20T05:06:19;1.60;;;1.50;;
12768;SDS011;6448;48.916;8.990;2022-11-20T05:07:22;1.48;;;1.35;;
12768;SDS011;6448;48.916;8.990;2022-11-20T05:08:22;1.60;;;1.50;;
12768;SDS011;6448;48.916;8.990;2022-11-20T05:09:24;1.58;;;1.48;;
12768;SDS011;6448;48.916;8.990;2022-11-20T05:10:25;1.50;;;1.40;;
12768;SDS011;6448;48.916;8.990;2022-11-20T05:11:27;1.90;;;1.40;;
12768;SDS011;6448;48.916;8.990;2022-11-20T05:12:29;1.60;;;1.50;;
12768;SDS011;6448;48.916;8.990;2022-11-20T05:13:30;1.80;;;1.70;;
12768;SDS011;6448;48.916;8.990;2022-11-20T05:14:33;2.00;;;1.80;;
12768;SDS011;6448;48.916;8.990;2022-11-20T05:15:34;2.33;;;2.13;;
12768;SDS011;6448;48.916;8.990;2022-11-20T05:16:35;2.00;;;1.90;;
12768;SDS011;6448;48.916;8.990;2022-11-20T05:17:37;2.10;;;1.90;;
12768;SDS011;6448;48.916;8.990;2022-11-20T05:18:38;1.90;;;1.80;;
12768;SDS011;6448;48.916;8.990;2022-11-20T05:19:40;1.85;;;1.70;;
12768;SDS011;6448;48.916;8.990;2022-11-20T05:20:41;1.60;;;1.50;;
12768;SDS011;6448;48.916;8.990;2022-11-20T05:21:43;1.58;;;1.48;;
12768;SDS011;6448;48.916;8.990;2022-11-20T05:22:45;1.42;;;1.33;;
12768;SDS011;6448;48.916;8.990;2022-11-20T05:23:46;1.50;;;1.40;;
12768;SDS011;6448;48.916;8.990;2022-11-20T05:24:48;1.50;;;1.40;;
12768;SDS011;6448;48.916;8.990;2022-11-20T05:25:51;1.30;;;1.20;;
12768;SDS011;6448;48.916;8.990;2022-11-20T05:26:54;1.50;;;1.40;;
12768;SDS011;6448;48.916;8.990;2022-11-20T05:27:54;1.50;;;1.40;;
12768;SDS011;6448;48.916;8.990;2022-11-20T05:28:56;1.50;;;1.40;;
12768;SDS011;6448;48.916;8.990;2022-11-20T05:29:58;1.50;;;1.40;;
12768;SDS011;6448;48.916;8.990;2022-11-20T05:31:04;1.50;;;1.40;;
12768;SDS011;6448;48.916;8.990;2022-11-20T05:32:06;1.40;;;1.30;;
12768;SDS011;6448;48.916;8.990;2022-11-20T05:33:09;1.40;;;1.30;;
12768;SDS011;6448;48.916;8.990;2022-11-20T05:34:10;1.48;;;1.38;;
12768;SDS011;6448;48.916;8.990;2022-11-20T05:35:12;2.10;;;1.40;;
12768;SDS011;6448;48.916;8.990;2022-11-20T05:36:13;1.50;;;1.40;;
12768;SDS011;6448;48.916;8.990;2022-11-20T05:37:16;1.40;;;1.30;;
12768;SDS011;6448;48.916;8.990;2022-11-20T05:38:17;1.40;;;1.30;;
12768;SDS011;6448;48.916;8.990;2022-11-20T05:39:18;1.30;;;1.20;;
12768;SDS011;6448;48.916;8.990;2022-11-20T05:40:19;1.47;;;1.33;;
12768;SDS011;6448;48.916;8.990;2022-11-20T05:41:21;1.30;;;1.20;;
12768;SDS011;6448;48.916;8.990;2022-11-20T05:42:22;1.40;;;1.30;;
12768;SDS011;6448;48.916;8.990;2022-11-20T05:43:33;1.40;;;1.30;;
12768;SDS011;6448;48.916;8.990;2022-11-20T05:44:34;1.40;;;1.30;;
12768;SDS011;6448;48.916;8.990;2022-11-20T05:45:37;1.40;;;1.30;;
12768;SDS011;6448;48.916;8.990;2022-11-20T05:46:38;1.50;;;1.40;;
12768;SDS011;6448;48.916;8.990;2022-11-20T05:47:40;1.30;;;1.20;;
12768;SDS011;6448;48.916;8.990;2022-11-20T05:48:41;1.38;;;1.27;;
12768;SDS011;6448;48.916;8.990;2022-11-20T05:49:44;1.30;;;1.20;;
12768;SDS011;6448;48.916;8.990;2022-11-20T05:50:45;0.98;;;0.98;;
12768;SDS011;6448;48.916;8.990;2022-11-20T05:51:46;1.20;;;1.10;;
12768;SDS011;6448;48.916;8.990;2022-11-20T05:52:47;1.20;;;1.10;;
12768;SDS011;6448;48.916;8.990;2022-11-20T05:53:49;1.23;;;1.00;;
12768;SDS011;6448;48.916;8.990;2022-11-20T05:54:50;1.23;;;1.13;;
12768;SDS011;6448;48.916;8.990;2022-11-20T05:55:58;1.20;;;1.10;;
12768;SDS011;6448;48.916;8.990;2022-11-20T05:57:00;1.00;;;1.00;;
12768;SDS011;6448;48.916;8.990;2022-11-20T05:58:01;1.20;;;1.10;;
12768;SDS011;6448;48.916;8.990;2022-11-20T05:59:03;1.20;;;1.10;;
12768;SDS011;6448;48.916;8.990;2022-11-20T06:00:04;1.30;;;1.20;;
12768;SDS011;6448;48.916;8.990;2022-11-20T06:01:09;1.13;;;1.02;;
12768;SDS011;6448;48.916;8.990;2022-11-20T06:02:11;1.17;;;1.08;;
12768;SDS011;6448;48.916;8.990;2022-11-20T06:03:13;1.10;;;1.00;;
12768;SDS011;6448;48.916;8.990;2022-11-20T06:04:14;1.20;;;1.10;;
12768;SDS011;6448;48.916;8.990;2022-11-20T06:05:16;1.25;;;1.10;;
12768;SDS011;6448;48.916;8.990;2022-11-20T06:06:17;1.02;;;0.93;;
12768;SDS011;6448;48.916;8.990;2022-11-20T06:07:19;1.20;;;1.10;;
12768;SDS011;6448;48.916;8.990;2022-11-20T06:08:20;1.10;;;1.00;;
12768;SDS011;6448;48.916;8.990;2022-11-20T06:09:22;1.27;;;1.17;;
12768;SDS011;6448;48.916;8.990;2022-11-20T06:10:23;1.20;;;1.10;;
12768;SDS011;6448;48.916;8.990;2022-11-20T06:11:24;1.20;;;1.10;;
12768;SDS011;6448;48.916;8.990;2022-11-20T06:12:25;1.20;;;1.10;;
12768;SDS011;6448;48.916;8.990;2022-11-20T06:13:27;0.93;;;0.93;;
12768;SDS011;6448;48.916;8.990;2022-11-20T06:14:28;0.90;;;0.90;;
12768;SDS011;6448;48.916;8.990;2022-11-20T06:15:30;1.00;;;1.00;;
12768;SDS011;6448;48.916;8.990;2022-11-20T06:16:32;1.10;;;1.00;;
12768;SDS011;6448;48.916;8.990;2022-11-20T06:17:34;1.23;;;1.05;;
12768;SDS011;6448;48.916;8.990;2022-11-20T06:18:34;1.10;;;1.00;;
12768;SDS011;6448;48.916;8.990;2022-11-20T06:19:36;0.90;;;0.90;;
12768;SDS011;6448;48.916;8.990;2022-11-20T06:20:37;1.00;;;1.00;;
12768;SDS011;6448;48.916;8.990;2022-11-20T06:21:39;1.10;;;1.00;;